KMSV/MSV METAR and TAF weather

Enter ICAO airport designator
Station Type Date Time Source
KMSV METAR 2021/10/24 22:53 UTC NOAA

KMSV 242253Z AUTO 16004KT 10SM BKN028 BKN035 OVC042 09/07 A3012 RMK AO2


Station Type Date Time Source
KMSV Decoded METAR 2021/10/24 22:53 UTC NOAA

Monticello, Sullivan County International Airport, NY, United States (KMSV) 41-42N 074-48W
Oct 24, 2021 - 06:53 PM EDT / 2021.10.24 2253 UTC
Wind: from the SSE (160 degrees) at 5 MPH (4 KT):0
Visibility: 10 mile(s):0
Sky conditions: overcast
Temperature: 48 F (9 C)
Dew Point: 44 F (7 C)
Relative Humidity: 87%
Pressure (altimeter): 30.12 in. Hg (1019 hPa)
ob: KMSV 242253Z AUTO 16004KT 10SM BKN028 BKN035 OVC042 09/07 A3012 RMK AO2
cycle: 23

Station Type Date Time Source
KMSV TAF UTC NOAA

Error!

Example: see airport list